Alta Vista, KS

11:17 PM CDT on October 24, 2014 (GMT -0500)
Marshall Army Air Field | Change Station
CLOSE
Current Station
Airport
Location: Ft Riley,
Elevation: 1063 ft
Nearby Weather Stations

Elev 1063 ft 39.06 °N, 96.76 °W | Updated 19 minutes ago

Clear
Clear
64 °F
Feels Like 64 °F
N
4
Wind Variable Wind from North

Today
High -- | Low -- °F
--% Chance of Precip.
Yesterday
High -- | Low -- °F
Precip. -- in
7:44 AM 6:35 PM
New Moon, 2% visible
Pressure 29.98 in
Visibility 10.0 miles
Clouds Clear
Dew Point 62 °F
Humidity 93%
Rainfall 0.00 in
Snow Depth Not available.
UV 0 out of 12
Pollen 3.40 out of 12
Air Quality Not available.
Flu Activity No Activity
METAR KFRI 250358Z AUTO 36003KT 10SM CLR 18/17 A3000 RMK AO2 SLP152 T01780166

More Conditions Fewer Conditions

Pressure 29.98 in
Visibility 10.0 miles
Clouds Clear
Dew Point 62 °F
Humidity 93%
Rainfall 0.00 in
Snow Depth Not available.
UV 0 out of 12
Pollen 3.40 out of 12
Air Quality Not available.
Flu Activity No Activity
METAR KFRI 250358Z AUTO 36003KT 10SM CLR 18/17 A3000 RMK AO2 SLP152 T01780166

More Conditions Fewer Conditions

10-Day Weather Forecast

Almanac

Astronomy

Oct. 24, 2014 Rise Set
Actual Time 7:44 AM CDT 6:35 PM CDT
Civil Twilight 7:17 AM CDT 7:02 PM CDT
Nautical Twilight 6:46 AM CDT 7:33 PM CDT
Astronomical Twilight 6:15 AM CDT 8:04 PM CDT
Moon 8:24 AM CDT (10/24) 7:16 PM CDT (10/24)
Length of Visible Light 11h 44m
Length of Day
10h 50m
Tomorrow will be 2m 20s shorter.
New Moon, 2% of the Moon is Illuminated
Oct 25
New Moon
Oct 30
First Quarter
Nov 6
Full
Nov 14
Last Quarter
Nov 22
New

Today's Extremes

State Highs State Lows

Community

WunderPhotos

Upload Photos

1,764,779 photos uploaded!

Nearby

Snow Depth

Station Depth Elevation
No new snow has been reported.

Earthquake Activity

City Distance Mag. Time & Date
Anthony, Kansas 147 miles 2.7 4:24 AM CDT
2014-10-24
Anthony, Kansas 149 miles 2.7 9:47 PM CDT
2014-10-22
Anthony, Kansas 148 miles 3.3 6:48 PM CDT
2014-10-22
Minimum magnitude displayed is 2.5.

Coastal Water Temperatures

Place Temperature
No Stations Reporting

Nearby Weather Stations